createdAt,value
2022-10-21T00:00:49.499Z,19.00
2022-10-21T00:03:17.250Z,23.17
2022-10-21T00:05:45.140Z,24.17
2022-10-21T00:08:12.641Z,20.50
2022-10-21T00:10:40.487Z,23.00
2022-10-21T00:13:08.297Z,22.00
2022-10-21T00:15:37.207Z,23.53
2022-10-21T00:18:04.865Z,23.40
2022-10-21T00:20:34.795Z,19.53
2022-10-21T00:23:05.014Z,22.13
2022-10-21T00:25:32.622Z,19.63
2022-10-21T00:28:00.087Z,21.43
2022-10-21T00:30:27.566Z,19.67
2022-10-21T00:33:00.752Z,19.40
2022-10-21T00:35:33.506Z,21.23
2022-10-21T00:38:01.480Z,20.83
2022-10-21T00:40:28.947Z,21.27
2022-10-21T00:42:56.582Z,17.90
2022-10-21T00:45:24.950Z,25.13
2022-10-21T00:47:53.419Z,20.80
2022-10-21T00:50:27.592Z,21.90
2022-10-21T00:52:55.717Z,22.17
2022-10-21T00:55:23.993Z,26.37
2022-10-21T00:57:52.501Z,25.53
2022-10-21T01:00:20.397Z,26.40
2022-10-21T01:02:47.958Z,23.10
2022-10-21T01:05:15.927Z,25.93
2022-10-21T01:07:47.374Z,21.70
2022-10-21T01:10:15.648Z,20.73
2022-10-21T01:12:48.378Z,22.63
2022-10-21T01:15:20.353Z,28.77
2022-10-21T01:17:50.934Z,23.60
2022-10-21T01:20:24.626Z,22.63
2022-10-21T01:23:01.677Z,19.10
2022-10-21T01:25:37.751Z,24.13
2022-10-21T01:28:08.533Z,19.87
2022-10-21T01:30:39.411Z,22.90
2022-10-21T01:33:15.803Z,22.13
2022-10-21T01:35:47.239Z,21.90
2022-10-21T01:38:18.846Z,23.43
2022-10-21T01:40:50.679Z,20.63
2022-10-21T01:43:20.386Z,24.53
2022-10-21T01:45:50.319Z,20.63
2022-10-21T01:48:20.103Z,23.70
2022-10-21T01:50:48.934Z,24.10
2022-10-21T01:53:17.003Z,21.27
2022-10-21T01:55:46.241Z,22.90
2022-10-21T01:58:15.505Z,21.80
2022-10-21T02:00:44.559Z,22.10
2022-10-21T02:03:17.835Z,26.43
2022-10-21T02:05:45.359Z,24.87
2022-10-21T02:08:13.406Z,24.57
2022-10-21T02:10:43.366Z,19.43
2022-10-21T02:13:11.761Z,24.30
2022-10-21T02:15:41.678Z,25.53
2022-10-21T02:18:21.266Z,24.77
2022-10-21T02:20:50.899Z,25.03
2022-10-21T02:23:20.199Z,23.70
2022-10-21T02:25:49.661Z,25.40
2022-10-21T02:28:17.987Z,28.70
2022-10-21T02:30:50.289Z,25.23
2022-10-21T02:33:22.892Z,27.70
2022-10-21T02:35:56.031Z,23.97
2022-10-21T02:38:25.047Z,22.67
2022-10-21T02:40:55.273Z,24.07
2022-10-21T02:43:26.665Z,23.47
2022-10-21T02:45:56.195Z,25.17
2022-10-21T02:48:25.495Z,21.57
2022-10-21T02:50:52.979Z,19.97
2022-10-21T02:53:20.497Z,22.60
2022-10-21T02:55:48.600Z,24.13
2022-10-21T02:58:16.241Z,22.90
2022-10-21T03:00:43.718Z,23.70
2022-10-21T03:03:11.899Z,23.67
2022-10-21T03:05:40.783Z,23.53
2022-10-21T03:08:08.475Z,22.63
2022-10-21T03:10:36.316Z,22.40
2022-10-21T03:13:03.812Z,24.50
2022-10-21T03:15:31.383Z,26.83
2022-10-21T03:17:59.175Z,25.77
2022-10-21T03:20:26.745Z,23.47
2022-10-21T03:22:55.570Z,26.87
2022-10-21T03:25:23.243Z,22.10
2022-10-21T03:27:51.081Z,26.20
2022-10-21T03:30:18.647Z,23.73
2022-10-21T03:32:46.807Z,21.80
2022-10-21T03:35:14.336Z,26.80
2022-10-21T03:37:44.299Z,27.70
2022-10-21T03:40:13.517Z,26.30
2022-10-21T03:42:41.700Z,28.73
2022-10-21T03:45:10.145Z,23.77
2022-10-21T03:47:37.887Z,25.20
2022-10-21T03:50:08.890Z,21.57
2022-10-21T03:52:40.659Z,25.07
2022-10-21T03:55:09.150Z,23.60
2022-10-21T03:57:38.850Z,24.67
2022-10-21T04:00:08.063Z,24.73
2022-10-21T04:02:40.594Z,26.23
2022-10-21T04:05:09.074Z,28.73
2022-10-21T04:07:36.580Z,30.50
2022-10-21T04:10:04.504Z,28.20
2022-10-21T04:12:32.329Z,28.50
2022-10-21T04:15:01.194Z,31.63
2022-10-21T04:17:28.734Z,28.53
2022-10-21T04:19:56.695Z,28.70
2022-10-21T04:22:24.195Z,29.13
2022-10-21T04:24:52.083Z,28.37
2022-10-21T04:27:20.055Z,28.50
2022-10-21T04:29:47.597Z,26.40
2022-10-21T04:32:16.884Z,23.93
2022-10-21T04:34:45.539Z,25.63
2022-10-21T04:37:13.453Z,30.53
2022-10-21T04:39:41.012Z,25.37
2022-10-21T04:42:09.531Z,24.53
2022-10-21T04:44:38.425Z,27.97
2022-10-21T04:47:06.003Z,22.30
2022-10-21T04:49:35.233Z,27.23
2022-10-21T04:52:02.759Z,21.80
2022-10-21T04:54:30.437Z,26.53
2022-10-21T04:56:57.989Z,25.57
2022-10-21T04:59:25.589Z,27.30
2022-10-21T05:01:53.134Z,26.43
2022-10-21T05:04:21.006Z,22.07
2022-10-21T05:06:52.932Z,24.70
2022-10-21T05:09:20.969Z,23.57
2022-10-21T05:11:48.642Z,26.10
2022-10-21T05:14:20.037Z,26.43
2022-10-21T05:16:51.081Z,23.90
2022-10-21T05:19:18.862Z,23.60
2022-10-21T05:21:47.495Z,25.60
2022-10-21T05:24:16.413Z,26.60
2022-10-21T05:26:44.122Z,24.90
2022-10-21T05:29:12.042Z,29.47
2022-10-21T05:31:39.522Z,26.57
2022-10-21T05:34:07.510Z,26.93
2022-10-21T05:36:35.822Z,24.57
2022-10-21T05:39:03.397Z,24.07
2022-10-21T05:41:32.384Z,25.50
2022-10-21T05:44:00.282Z,23.27
2022-10-21T05:46:27.839Z,30.93
2022-10-21T05:48:56.038Z,23.33
2022-10-21T05:51:26.403Z,24.90
2022-10-21T05:53:54.217Z,28.67
2022-10-21T05:56:22.367Z,21.90
2022-10-21T05:58:51.476Z,23.37
2022-10-21T06:01:19.346Z,24.03
2022-10-21T06:03:47.064Z,25.63
2022-10-21T06:06:14.562Z,27.50
2022-10-21T06:08:42.266Z,27.07
2022-10-21T06:11:10.998Z,32.40
2022-10-21T06:13:39.183Z,28.93
2022-10-21T06:16:08.897Z,29.90
2022-10-21T06:18:36.859Z,24.63
2022-10-21T06:21:04.626Z,40.67
2022-10-21T06:23:32.183Z,23.70
2022-10-21T06:26:01.673Z,28.50
2022-10-21T06:28:30.337Z,30.17
2022-10-21T06:30:58.123Z,30.33
2022-10-21T06:33:27.503Z,28.63
2022-10-21T06:35:55.268Z,27.60
2022-10-21T06:38:23.010Z,27.30
2022-10-21T06:40:50.503Z,25.23
2022-10-21T06:43:18.454Z,28.60
2022-10-21T06:45:46.298Z,27.40
2022-10-21T06:48:14.101Z,26.87
2022-10-21T06:50:43.096Z,28.83
2022-10-21T06:53:10.573Z,36.73
2022-10-21T06:55:38.259Z,30.73
2022-10-21T06:58:05.811Z,29.07
2022-10-21T07:00:33.314Z,31.83
2022-10-21T07:03:01.551Z,34.73
2022-10-21T07:05:29.866Z,37.80
2022-10-21T07:07:59.488Z,32.50
2022-10-21T07:10:27.052Z,33.33
2022-10-21T07:12:54.863Z,31.70
2022-10-21T07:15:22.491Z,30.93
2022-10-21T07:17:50.298Z,38.63
2022-10-21T07:20:17.755Z,37.93
2022-10-21T07:22:45.414Z,38.87
2022-10-21T07:25:14.642Z,31.27
2022-10-21T07:27:44.675Z,27.53
2022-10-21T07:30:15.604Z,32.30
2022-10-21T07:32:43.650Z,40.43
2022-10-21T07:35:11.323Z,32.77
2022-10-21T07:37:39.297Z,29.00
2022-10-21T07:40:09.058Z,26.30
2022-10-21T07:42:38.418Z,27.60
2022-10-21T07:45:06.709Z,26.03
2022-10-21T07:47:34.227Z,25.30
2022-10-21T07:50:02.645Z,28.97
2022-10-21T07:52:31.675Z,25.80
2022-10-21T07:55:02.592Z,26.90
2022-10-21T07:57:30.239Z,25.13
2022-10-21T07:59:59.015Z,26.97
2022-10-21T08:02:26.821Z,29.37
2022-10-21T08:04:55.331Z,26.97
2022-10-21T08:07:22.995Z,25.73
2022-10-21T08:09:50.587Z,29.53
2022-10-21T08:12:18.057Z,25.60
2022-10-21T08:14:45.526Z,28.97
2022-10-21T08:17:14.637Z,28.00
2022-10-21T08:19:42.116Z,27.20
2022-10-21T08:22:09.890Z,26.27
2022-10-21T08:24:39.982Z,25.23
2022-10-21T08:27:10.257Z,31.27
2022-10-21T08:29:39.936Z,26.83
2022-10-21T08:32:07.952Z,30.70
2022-10-21T08:34:38.471Z,30.70
2022-10-21T08:37:05.987Z,31.17
2022-10-21T08:39:33.458Z,25.47
2022-10-21T08:42:07.646Z,29.30
2022-10-21T08:44:39.791Z,24.30
2022-10-21T08:47:13.118Z,25.73
2022-10-21T08:49:47.315Z,28.47
2022-10-21T08:52:20.185Z,26.90
2022-10-21T08:54:50.339Z,27.07
2022-10-21T08:57:18.361Z,32.60
2022-10-21T08:59:46.641Z,28.87
2022-10-21T09:02:27.519Z,26.73
2022-10-21T09:05:03.140Z,21.97
2022-10-21T09:07:34.493Z,39.93
2022-10-21T09:10:04.172Z,33.90
2022-10-21T09:12:33.910Z,28.93
2022-10-21T09:15:11.226Z,26.50
2022-10-21T09:17:49.178Z,27.43
2022-10-21T09:20:23.630Z,31.83
2022-10-21T09:22:57.118Z,26.43
2022-10-21T09:25:27.816Z,31.73
2022-10-21T09:27:57.182Z,26.93
2022-10-21T09:30:25.586Z,26.30
2022-10-21T09:32:56.947Z,24.63
2022-10-21T09:35:29.292Z,25.40
2022-10-21T09:37:58.879Z,28.77
2022-10-21T09:40:28.276Z,23.00
2022-10-21T09:42:56.780Z,28.30
2022-10-21T09:45:27.171Z,24.70
2022-10-21T09:47:58.585Z,21.73
2022-10-21T09:50:29.601Z,25.53
2022-10-21T09:53:07.526Z,28.03
2022-10-21T09:55:36.026Z,22.57
2022-10-21T09:58:04.277Z,24.03
2022-10-21T10:00:43.526Z,27.50
2022-10-21T10:03:11.283Z,25.00
2022-10-21T10:05:44.473Z,27.27
2022-10-21T10:08:22.240Z,32.33
2022-10-21T10:10:50.010Z,20.73
2022-10-21T10:13:18.417Z,20.67
2022-10-21T10:15:46.357Z,29.47
2022-10-21T10:18:21.061Z,22.63
2022-10-21T10:21:04.480Z,20.83
2022-10-21T10:23:32.054Z,19.53
2022-10-21T10:25:59.717Z,28.10
2022-10-21T10:28:27.780Z,27.30
2022-10-21T10:30:56.231Z,20.63
2022-10-21T10:33:24.859Z,25.00
2022-10-21T10:35:54.496Z,21.80
2022-10-21T10:38:25.180Z,26.33
2022-10-21T10:40:56.328Z,20.77
2022-10-21T10:43:29.224Z,23.40
2022-10-21T10:45:58.357Z,23.47
2022-10-21T10:48:29.406Z,24.07
2022-10-21T10:50:58.307Z,23.20
2022-10-21T10:53:33.054Z,26.80
2022-10-21T10:56:05.422Z,28.20
2022-10-21T10:58:35.523Z,26.57
2022-10-21T11:01:05.033Z,21.53
2022-10-21T11:03:40.481Z,31.43
2022-10-21T11:09:02.564Z,24.67
2022-10-21T11:11:31.833Z,25.47
2022-10-21T11:16:59.141Z,24.03
2022-10-21T11:19:31.253Z,22.80
2022-10-21T11:22:07.408Z,25.07
2022-10-21T11:24:42.366Z,30.93
2022-10-21T11:27:18.208Z,22.63
2022-10-21T11:29:52.155Z,25.63
2022-10-21T11:32:25.760Z,25.97
2022-10-21T11:34:59.768Z,21.90
2022-10-21T11:37:39.148Z,21.53
2022-10-21T11:40:12.679Z,19.67
2022-10-21T11:42:42.658Z,23.03
2022-10-21T11:45:25.048Z,22.40
2022-10-21T11:47:57.055Z,25.47
2022-10-21T11:50:28.371Z,23.50
2022-10-21T11:53:12.450Z,20.77
2022-10-21T11:55:42.559Z,26.00
2022-10-21T11:58:17.298Z,24.37
2022-10-21T12:00:49.967Z,32.97
2022-10-21T12:03:38.761Z,28.17
2022-10-21T12:06:13.733Z,35.63
2022-10-21T12:08:48.308Z,25.00
2022-10-21T12:11:22.330Z,23.00
2022-10-21T12:13:51.939Z,22.67
2022-10-21T12:16:20.934Z,24.27
2022-10-21T12:18:51.360Z,22.53
2022-10-21T12:21:19.858Z,25.87
2022-10-21T12:23:52.973Z,24.57
2022-10-21T12:26:22.319Z,27.87
2022-10-21T12:28:52.650Z,25.70
2022-10-21T12:31:28.725Z,24.10
2022-10-21T12:33:56.442Z,21.40
2022-10-21T12:36:41.490Z,27.33
2022-10-21T12:39:13.216Z,28.13
2022-10-21T12:41:41.883Z,29.57
2022-10-21T12:44:21.250Z,24.40
2022-10-21T12:54:56.851Z,30.60
2022-10-21T12:57:34.344Z,27.30
2022-10-21T13:00:44.074Z,32.10
2022-10-21T13:03:12.450Z,28.00
2022-10-21T13:06:02.144Z,22.63
2022-10-21T13:08:38.000Z,17.30
2022-10-21T13:11:22.992Z,27.57
2022-10-21T13:14:13.618Z,25.53
2022-10-21T13:16:41.837Z,22.50
2022-10-21T13:19:25.326Z,20.10
2022-10-21T13:22:01.606Z,20.20
2022-10-21T13:24:31.449Z,20.17
2022-10-21T13:27:00.105Z,27.43
2022-10-21T13:29:48.970Z,19.70
2022-10-21T13:32:28.154Z,24.17
2022-10-21T13:35:11.382Z,27.87
2022-10-21T13:37:41.233Z,31.27
2022-10-21T13:40:15.234Z,21.57
2022-10-21T13:42:45.597Z,34.70
2022-10-21T13:45:21.425Z,29.43
2022-10-21T13:48:00.441Z,19.57
2022-10-21T13:50:28.474Z,24.50
2022-10-21T13:52:56.088Z,28.83
2022-10-21T13:55:24.713Z,27.27
2022-10-21T13:57:54.098Z,27.67
2022-10-21T14:00:23.835Z,33.83
2022-10-21T14:02:52.305Z,26.43
2022-10-21T14:05:39.767Z,27.73
2022-10-21T14:08:14.895Z,26.87
2022-10-21T14:10:45.734Z,24.73
2022-10-21T14:13:13.871Z,31.57
2022-10-21T14:15:43.047Z,27.07
2022-10-21T14:18:24.460Z,31.27
2022-10-21T14:20:56.574Z,27.03
2022-10-21T14:23:24.584Z,28.40
2022-10-21T14:25:52.957Z,42.60
2022-10-21T14:28:21.042Z,26.43
2022-10-21T14:30:49.336Z,26.50
2022-10-21T14:33:20.364Z,31.80
2022-10-21T14:36:04.709Z,27.93
2022-10-21T14:38:37.274Z,28.80
2022-10-21T14:41:07.003Z,26.47
2022-10-21T14:43:35.863Z,34.27
2022-10-21T14:46:05.039Z,31.80
2022-10-21T14:48:35.111Z,26.60
2022-10-21T14:51:04.341Z,26.10
2022-10-21T14:53:33.911Z,29.70
2022-10-21T14:56:04.363Z,24.97
2022-10-21T14:58:32.935Z,27.97
2022-10-21T15:01:01.459Z,26.80
2022-10-21T15:03:39.702Z,20.57
2022-10-21T15:06:11.402Z,20.70
2022-10-21T15:08:41.094Z,33.27
2022-10-21T15:11:23.174Z,21.63
2022-10-21T15:13:57.454Z,25.37
2022-10-21T15:16:26.879Z,23.03
2022-10-21T15:18:54.671Z,25.03
2022-10-21T15:21:26.942Z,31.80
2022-10-21T15:23:55.367Z,30.70
2022-10-21T15:26:26.783Z,26.37
2022-10-21T15:28:54.818Z,26.90
2022-10-21T15:31:23.520Z,22.93
2022-10-21T15:33:52.539Z,34.10
2022-10-21T15:36:20.331Z,28.33
2022-10-21T15:38:48.114Z,29.43
2022-10-21T15:41:16.759Z,25.43
2022-10-21T15:43:51.574Z,25.27
2022-10-21T15:46:19.168Z,28.23
2022-10-21T15:48:46.635Z,39.67
2022-10-21T15:51:14.264Z,28.77
2022-10-21T15:53:44.467Z,31.17
2022-10-21T15:56:13.755Z,26.67
2022-10-21T15:58:41.602Z,28.97
2022-10-21T16:01:12.577Z,25.10
2022-10-21T16:03:40.212Z,29.63
2022-10-21T16:06:07.855Z,33.63
2022-10-21T16:08:35.446Z,27.97
2022-10-21T16:11:03.004Z,29.63
2022-10-21T16:13:30.579Z,25.60
2022-10-21T16:15:58.671Z,29.87
2022-10-21T16:18:27.807Z,26.70
2022-10-21T16:20:55.327Z,28.70
2022-10-21T16:23:22.807Z,35.63
2022-10-21T16:25:50.867Z,25.43
2022-10-21T16:28:18.330Z,42.63
2022-10-21T16:30:46.029Z,26.57
2022-10-21T16:33:13.611Z,23.50
2022-10-21T16:35:42.577Z,27.00
2022-10-21T16:38:10.024Z,24.83
2022-10-21T16:40:38.104Z,29.73
2022-10-21T16:43:05.560Z,33.40
2022-10-21T16:45:33.399Z,38.77
2022-10-21T16:48:02.217Z,34.30
2022-10-21T16:50:33.656Z,30.33
2022-10-21T16:53:04.163Z,36.37
2022-10-21T16:55:31.774Z,29.90
2022-10-21T16:57:59.405Z,35.83
2022-10-21T17:00:27.112Z,29.60
2022-10-21T17:02:54.577Z,33.43
2022-10-21T17:05:22.492Z,30.53
2022-10-21T17:07:50.232Z,35.70
2022-10-21T17:10:19.293Z,39.60
2022-10-21T17:12:46.872Z,34.73
2022-10-21T17:15:16.384Z,31.90
2022-10-21T17:17:44.118Z,33.37
2022-10-21T17:20:11.982Z,28.63
2022-10-21T17:22:39.779Z,34.00
2022-10-21T17:25:07.469Z,32.13
2022-10-21T17:27:36.935Z,34.10
2022-10-21T17:30:06.306Z,27.27
2022-10-21T17:32:33.801Z,37.63
2022-10-21T17:35:01.516Z,34.50
2022-10-21T17:37:29.100Z,34.40
2022-10-21T17:39:57.449Z,37.00
2022-10-21T17:42:24.946Z,32.53
2022-10-21T17:44:54.138Z,34.20
2022-10-21T17:47:21.620Z,34.33
2022-10-21T17:49:49.201Z,35.17
2022-10-21T17:52:17.063Z,38.87
2022-10-21T17:54:44.695Z,44.50
2022-10-21T17:57:12.204Z,41.10
2022-10-21T17:59:41.078Z,38.93
2022-10-21T18:02:10.519Z,41.43
2022-10-21T18:04:38.515Z,46.50
2022-10-21T18:07:09.322Z,40.50
2022-10-21T18:09:37.891Z,41.90
2022-10-21T18:12:09.351Z,35.07
2022-10-21T18:14:37.151Z,46.70
2022-10-21T18:17:05.084Z,36.03
2022-10-21T18:19:34.510Z,43.37
2022-10-21T18:22:02.606Z,38.33
2022-10-21T18:24:30.195Z,45.57
2022-10-21T18:26:57.994Z,45.97
2022-10-21T18:29:25.617Z,56.20
2022-10-21T18:31:53.497Z,44.60
2022-10-21T18:34:21.011Z,44.80
2022-10-21T18:39:25.089Z,68.57
2022-10-21T18:41:53.676Z,57.20
2022-10-21T18:44:21.235Z,71.23
2022-10-21T18:46:51.195Z,59.60
2022-10-21T18:49:21.581Z,48.77
2022-10-21T18:51:50.389Z,58.33
2022-10-21T18:54:18.082Z,66.03
2022-10-21T18:56:45.850Z,55.77
2022-10-21T18:59:13.595Z,48.03
2022-10-21T19:01:41.346Z,61.70
2022-10-21T19:04:09.313Z,55.63
2022-10-21T19:06:38.538Z,54.33
2022-10-21T19:09:11.336Z,49.77
2022-10-21T19:11:39.000Z,69.77
2022-10-21T19:14:09.763Z,51.33
2022-10-21T19:16:41.663Z,47.70
2022-10-21T19:19:10.005Z,56.97
2022-10-21T19:21:37.946Z,62.13
2022-10-21T19:24:05.684Z,51.73
2022-10-21T19:26:35.399Z,57.73
2022-10-21T19:29:04.272Z,62.90
2022-10-21T19:31:36.167Z,51.97
2022-10-21T19:34:06.118Z,56.73
2022-10-21T19:36:34.075Z,60.17
2022-10-21T19:39:01.639Z,64.23
2022-10-21T19:41:29.324Z,60.80
2022-10-21T19:43:58.981Z,63.37
2022-10-21T19:46:28.433Z,54.67
2022-10-21T19:48:56.339Z,57.83
2022-10-21T19:51:24.954Z,65.97
2022-10-21T19:53:52.949Z,62.07
2022-10-21T19:56:25.568Z,66.07
2022-10-21T19:58:55.967Z,61.73
2022-10-21T20:01:26.140Z,65.73
2022-10-21T20:03:54.319Z,58.83
2022-10-21T20:06:23.437Z,61.87
2022-10-21T20:08:51.353Z,71.13
2022-10-21T20:11:20.643Z,63.13
2022-10-21T20:13:48.707Z,66.40
2022-10-21T20:16:17.112Z,64.03
2022-10-21T20:18:46.565Z,66.97
2022-10-21T20:21:14.476Z,74.20
2022-10-21T20:23:42.075Z,82.60
2022-10-21T20:26:09.557Z,71.13
2022-10-21T20:28:37.820Z,70.93
2022-10-21T20:31:06.077Z,77.80
2022-10-21T20:33:35.110Z,86.77
2022-10-21T20:36:05.284Z,76.30
2022-10-21T20:38:33.143Z,65.60
2022-10-21T20:41:02.699Z,94.77
2022-10-21T20:43:30.742Z,72.23
2022-10-21T20:46:00.682Z,71.73
2022-10-21T20:48:30.186Z,93.83
2022-10-21T20:51:06.119Z,66.23
2022-10-21T20:53:34.055Z,73.90
2022-10-21T20:56:04.858Z,72.63
2022-10-21T20:58:34.311Z,70.50
2022-10-21T21:01:06.865Z,70.27
2022-10-21T21:03:38.170Z,72.07
2022-10-21T21:06:07.512Z,71.30
2022-10-21T21:08:35.619Z,74.20
2022-10-21T21:11:04.013Z,68.70
2022-10-21T21:13:31.507Z,85.23
2022-10-21T21:16:06.079Z,69.37
2022-10-21T21:18:33.984Z,70.07
2022-10-21T21:21:05.376Z,72.97
2022-10-21T21:23:37.383Z,71.23
2022-10-21T21:26:05.637Z,81.57
2022-10-21T21:28:35.579Z,78.00
2022-10-21T21:31:04.337Z,79.33
2022-10-21T21:33:32.207Z,80.70
2022-10-21T21:36:00.029Z,71.97
2022-10-21T21:38:28.755Z,81.03
2022-10-21T21:40:58.756Z,99.20
2022-10-21T21:43:26.347Z,78.23
2022-10-21T21:45:54.140Z,79.63
2022-10-21T21:48:21.705Z,84.07
2022-10-21T21:50:49.724Z,80.23
2022-10-21T21:53:20.184Z,90.67
2022-10-21T21:55:47.867Z,110.87
2022-10-21T21:58:16.670Z,81.67
2022-10-21T22:00:44.277Z,72.40
2022-10-21T22:03:11.807Z,77.43
2022-10-21T22:05:39.513Z,95.07
2022-10-21T22:08:07.270Z,78.13
2022-10-21T22:10:34.857Z,75.07
2022-10-21T22:13:02.364Z,77.37
2022-10-21T22:15:48.475Z,78.07
2022-10-21T22:18:16.434Z,86.33
2022-10-21T22:20:44.120Z,79.80
2022-10-21T22:23:11.646Z,87.57
2022-10-21T22:25:39.193Z,98.87
2022-10-21T22:28:06.939Z,72.80
2022-10-21T22:30:35.719Z,83.20
2022-10-21T22:33:03.392Z,78.13
2022-10-21T22:35:31.250Z,103.83
2022-10-21T22:37:58.717Z,83.77
2022-10-21T22:40:26.294Z,80.63
2022-10-21T22:42:53.889Z,79.30
2022-10-21T22:45:21.521Z,92.70
2022-10-21T22:47:50.731Z,79.73
2022-10-21T22:50:18.169Z,86.57
2022-10-21T22:52:45.795Z,76.93
2022-10-21T22:55:13.418Z,77.53
2022-10-21T22:57:40.851Z,75.13
2022-10-21T23:00:08.730Z,83.10
2022-10-21T23:02:36.617Z,81.83
2022-10-21T23:05:06.326Z,82.17
2022-10-21T23:07:33.974Z,84.90
2022-10-21T23:10:01.724Z,80.80
2022-10-21T23:12:29.302Z,72.83
2022-10-21T23:14:56.775Z,106.33
2022-10-21T23:17:25.725Z,72.17
2022-10-21T23:19:53.342Z,73.57
2022-10-21T23:22:22.534Z,79.63
2022-10-21T23:24:50.343Z,72.73
2022-10-21T23:27:17.972Z,61.50
2022-10-21T23:29:45.472Z,62.43
2022-10-21T23:32:13.357Z,68.33
2022-10-21T23:34:40.857Z,57.27
2022-10-21T23:37:29.287Z,64.10
2022-10-21T23:39:56.845Z,66.47
2022-10-21T23:42:24.923Z,59.30
2022-10-21T23:44:52.538Z,61.47
2022-10-21T23:47:20.140Z,62.13
2022-10-21T23:49:47.612Z,63.00
2022-10-21T23:52:15.249Z,63.23
2022-10-21T23:54:44.115Z,60.13
2022-10-21T23:57:11.636Z,58.83
2022-10-21T23:59:39.186Z,59.10
